Terminal Aerodrome Forecast
Issued by NWS

Home | Current Version | Previous Version | Graphics & Text | Print | Product List | Glossary On
Versions: 1 2 3 4 5 6 7 8 9 10 11 12 13 14 15 16 17 18 19 20 21 22 23 24 25
000
FTUS43 KGRB 271700 AAA
TAFMTW
TAF AMD
KMTW 271729Z 2717/2818 05004KT P6SM -SN BKN030
     FM272000 05005KT P6SM SCT035
     FM280300 VRB03KT P6SM BKN150
     FM281200 19008KT P6SM OVC120=

USA.gov is the U.S. government's official web portal to all federal, state and local government web resources and services.